This is the latest recevied weather packets stored in our database for station/object KC9MWQ-13. If no packets are shown the sender has not sent any weather packets the latest 10 day(s).
| Time | Temp. | Humidity | Pressure | Rain* | Wind** | Luminosity | Snow |
|---|---|---|---|---|---|---|---|
| 1777835967 | 11.11° C | 79% | 1016.4 hPa | 0 mm | - | 100 W/m² | - |
| 1777835665 | 11.67° C | 74% | 1016.2 hPa | 0 mm | - | 97 W/m² | - |
| 1777835361 | 11.67° C | 71% | 1016 hPa | 0 mm | - | 104 W/m² | - |
| 1777835059 | 12.22° C | 68% | 1016.2 hPa | 0 mm | - | 115 W/m² | - |
| 1777834755 | 12.78° C | 67% | 1016.1 hPa | 0 mm | - | 125 W/m² | - |
| 1777834452 | 13.89° C | 63% | 1015.7 hPa | 0 mm | - | 135 W/m² | - |
| 1777834151 | 14.44° C | 58% | 1015.5 hPa | 0 mm | - | 132 W/m² | - |
| 1777833848 | 15° C | 57% | 1015.5 hPa | 0 mm | - | 245 W/m² | - |
| 1777833544 | 15° C | 55% | 1015.4 hPa | 0 mm | - | 298 W/m² | - |
| 1777833241 | 15° C | 56% | 1015.5 hPa | 0 mm | - | 299 W/m² | - |
| 1777832938 | 15° C | 56% | 1015.6 hPa | 0 mm | - | 296 W/m² | - |
| 1777832637 | 15° C | 55% | 1015.5 hPa | 0 mm | - | 287 W/m² | - |
| 1777832334 | 15° C | 57% | 1015.5 hPa | 0 mm | - | 252 W/m² | - |
| 1777832031 | 15° C | 56% | 1015.5 hPa | 0 mm | - | 258 W/m² | - |
| 1777831727 | 15.56° C | 54% | 1015.7 hPa | 0 mm | - | 314 W/m² | - |
| 1777831425 | 15.56° C | 54% | 1015.8 hPa | 0 mm | - | 322 W/m² | - |
| 1777831121 | 15.56° C | 54% | 1015.8 hPa | 0 mm | - | 348 W/m² | - |
| 1777830820 | 15.56° C | 53% | 1016.1 hPa | 0 mm | - | 415 W/m² | - |
| 1777830515 | 15° C | 56% | 1016.2 hPa | 0 mm | - | 389 W/m² | - |
| 1777830213 | 15.56° C | 54% | 1016.1 hPa | 0 mm | - | 383 W/m² | - |
| 1777829908 | 15.56° C | 54% | 1016.1 hPa | 0 mm | - | 502 W/m² | - |
| 1777829605 | 15.56° C | 53% | 1016.4 hPa | 0 mm | - | 523 W/m² | - |
| 1777829301 | 16.11° C | 52% | 1016.2 hPa | 0 mm | - | 489 W/m² | - |
| 1777828999 | 16.11° C | 53% | 1016.3 hPa | 0 mm | - | 538 W/m² | - |
| 1777828695 | 16.11° C | 52% | 1016.3 hPa | 0 mm | - | 656 W/m² | - |
* Rain latest hour (hover to see other rain measurements)
** Current wind speed in m/s (hover to see current wind gust speed)